sensor_id;sensor_type;location;lat;lon;timestamp;pressure;altitude;pressure_sealevel;temperature;humidity
11053;BME280;55230;42.602;23.470;2023-04-28T00:00:46;93657.25;;;5.33;64.01
11053;BME280;55230;42.602;23.470;2023-04-28T00:03:14;93563.09;;;4.60;63.73
11053;BME280;55230;42.602;23.470;2023-04-28T00:05:41;93644.44;;;5.02;62.65
11053;BME280;55230;42.602;23.470;2023-04-28T00:08:08;93709.69;;;5.50;63.42
11053;BME280;55230;42.602;23.470;2023-04-28T00:10:34;93580.66;;;4.57;64.56
11053;BME280;55230;42.602;23.470;2023-04-28T00:13:01;93495.09;;;3.95;64.42
11053;BME280;55230;42.602;23.470;2023-04-28T00:15:28;93704.56;;;5.36;65.02
11053;BME280;55230;42.602;23.470;2023-04-28T00:17:54;93709.16;;;5.36;64.62
11053;BME280;55230;42.602;23.470;2023-04-28T00:20:23;93657.97;;;4.91;65.70
11053;BME280;55230;42.602;23.470;2023-04-28T00:22:49;93711.69;;;5.20;65.50
11053;BME280;55230;42.602;23.470;2023-04-28T00:25:16;93618.22;;;4.47;65.93
11053;BME280;55230;42.602;23.470;2023-04-28T00:27:43;93664.56;;;4.60;66.74
11053;BME280;55230;42.602;23.470;2023-04-28T00:30:10;93717.09;;;4.93;67.64
11053;BME280;55230;42.602;23.470;2023-04-28T00:32:37;93627.63;;;4.28;68.05
11053;BME280;55230;42.602;23.470;2023-04-28T00:35:04;93713.56;;;4.73;67.73
11053;BME280;55230;42.602;23.470;2023-04-28T00:37:36;93719.31;;;4.71;68.59
11053;BME280;55230;42.602;23.470;2023-04-28T00:40:03;93767.81;;;4.70;69.08
11053;BME280;55230;42.602;23.470;2023-04-28T00:42:30;93565.69;;;3.30;70.33
11053;BME280;55230;42.602;23.470;2023-04-28T00:44:57;93742.19;;;4.16;70.80
11053;BME280;55230;42.602;23.470;2023-04-28T00:47:30;93723.00;;;4.28;72.16
11053;BME280;55230;42.602;23.470;2023-04-28T00:49:57;93678.00;;;3.96;71.34
11053;BME280;55230;42.602;23.470;2023-04-28T00:52:24;93716.75;;;4.08;72.60
11053;BME280;55230;42.602;23.470;2023-04-28T00:54:52;93631.72;;;3.49;72.19
11053;BME280;55230;42.602;23.470;2023-04-28T00:57:19;93717.19;;;4.03;72.77
11053;BME280;55230;42.602;23.470;2023-04-28T00:59:46;93713.09;;;3.95;72.96
11053;BME280;55230;42.602;23.470;2023-04-28T01:02:13;93743.31;;;3.85;73.84
11053;BME280;55230;42.602;23.470;2023-04-28T01:04:42;93685.75;;;3.53;73.99
11053;BME280;55230;42.602;23.470;2023-04-28T01:07:10;93674.06;;;3.40;73.94
11053;BME280;55230;42.602;23.470;2023-04-28T01:09:37;93650.34;;;3.12;74.37
11053;BME280;55230;42.602;23.470;2023-04-28T01:12:05;93304.78;;;0.70;74.72
11053;BME280;55230;42.602;23.470;2023-04-28T01:14:33;93736.22;;;3.68;75.18
11053;BME280;55230;42.602;23.470;2023-04-28T01:17:00;93656.47;;;3.09;75.83
11053;BME280;55230;42.602;23.470;2023-04-28T01:19:27;93625.63;;;2.71;75.25
11053;BME280;55230;42.602;23.470;2023-04-28T01:21:54;93545.09;;;1.65;75.41
11053;BME280;55230;42.602;23.470;2023-04-28T01:24:22;93424.50;;;1.48;75.31
11053;BME280;55230;42.602;23.470;2023-04-28T01:26:49;93635.00;;;2.90;75.08
11053;BME280;55230;42.602;23.470;2023-04-28T01:29:15;93731.50;;;3.48;75.96
11053;BME280;55230;42.602;23.470;2023-04-28T01:31:42;93565.50;;;2.33;75.78
11053;BME280;55230;42.602;23.470;2023-04-28T01:34:09;93743.72;;;3.42;75.46
11053;BME280;55230;42.602;23.470;2023-04-28T01:36:35;93655.16;;;2.87;75.86
11053;BME280;55230;42.602;23.470;2023-04-28T01:39:02;93734.56;;;3.43;75.64
11053;BME280;55230;42.602;23.470;2023-04-28T01:41:30;93739.56;;;3.41;75.56
11053;BME280;55230;42.602;23.470;2023-04-28T01:43:58;93710.41;;;3.24;74.91
11053;BME280;55230;42.602;23.470;2023-04-28T01:46:25;93724.06;;;3.29;75.14
11053;BME280;55230;42.602;23.470;2023-04-28T01:48:52;93507.34;;;1.87;75.60
11053;BME280;55230;42.602;23.470;2023-04-28T01:51:19;93738.47;;;3.35;76.21
11053;BME280;55230;42.602;23.470;2023-04-28T01:53:45;93672.72;;;2.81;75.76
11053;BME280;55230;42.602;23.470;2023-04-28T01:56:12;93739.31;;;3.25;75.39
11053;BME280;55230;42.602;23.470;2023-04-28T01:58:40;93624.84;;;2.23;75.48
11053;BME280;55230;42.602;23.470;2023-04-28T02:01:07;93691.22;;;2.95;75.94
11053;BME280;55230;42.602;23.470;2023-04-28T02:03:34;93738.59;;;3.21;75.17
11053;BME280;55230;42.602;23.470;2023-04-28T02:06:00;93734.00;;;3.25;74.83
11053;BME280;55230;42.602;23.470;2023-04-28T02:08:27;93734.72;;;3.29;74.30
11053;BME280;55230;42.602;23.470;2023-04-28T02:10:54;93691.53;;;3.04;74.47
11053;BME280;55230;42.602;23.470;2023-04-28T02:13:21;93672.66;;;2.85;74.31
11053;BME280;55230;42.602;23.470;2023-04-28T02:15:49;93667.53;;;2.64;75.65
11053;BME280;55230;42.602;23.470;2023-04-28T02:18:16;93749.78;;;3.02;76.19
11053;BME280;55230;42.602;23.470;2023-04-28T02:20:42;93710.06;;;2.74;75.34
11053;BME280;55230;42.602;23.470;2023-04-28T02:23:09;93743.28;;;3.07;75.51
11053;BME280;55230;42.602;23.470;2023-04-28T02:25:36;93325.16;;;0.08;76.27
11053;BME280;55230;42.602;23.470;2023-04-28T02:28:03;93753.97;;;3.03;76.41
11053;BME280;55230;42.602;23.470;2023-04-28T02:30:29;93719.63;;;2.65;76.23
11053;BME280;55230;42.602;23.470;2023-04-28T02:32:58;93579.91;;;1.84;76.04
11053;BME280;55230;42.602;23.470;2023-04-28T02:35:24;93755.50;;;2.97;76.45
11053;BME280;55230;42.602;23.470;2023-04-28T02:37:51;93759.34;;;2.96;76.88
11053;BME280;55230;42.602;23.470;2023-04-28T02:40:18;93750.25;;;2.90;77.02
11053;BME280;55230;42.602;23.470;2023-04-28T02:42:45;93655.34;;;2.11;77.24
11053;BME280;55230;42.602;23.470;2023-04-28T02:45:12;93759.00;;;2.87;78.27
11053;BME280;55230;42.602;23.470;2023-04-28T02:47:38;93446.25;;;0.46;78.21
11053;BME280;55230;42.602;23.470;2023-04-28T02:50:08;93553.56;;;1.39;78.51
11053;BME280;55230;42.602;23.470;2023-04-28T02:52:35;93756.44;;;2.73;79.96
11053;BME280;55230;42.602;23.470;2023-04-28T02:55:01;93756.44;;;2.77;79.48
11053;BME280;55230;42.602;23.470;2023-04-28T02:57:29;93679.66;;;2.10;79.13
11053;BME280;55230;42.602;23.470;2023-04-28T02:59:56;93713.28;;;2.48;78.85
11053;BME280;55230;42.602;23.470;2023-04-28T03:02:22;93765.53;;;2.83;78.46
11053;BME280;55230;42.602;23.470;2023-04-28T03:04:49;93735.59;;;2.61;78.04
11053;BME280;55230;42.602;23.470;2023-04-28T03:07:17;93757.19;;;2.77;78.14
11053;BME280;55230;42.602;23.470;2023-04-28T03:09:44;93817.59;;;2.91;77.87
11053;BME280;55230;42.602;23.470;2023-04-28T03:12:12;93617.25;;;1.60;79.19
11053;BME280;55230;42.602;23.470;2023-04-28T03:14:39;93672.13;;;1.98;79.46
11053;BME280;55230;42.602;23.470;2023-04-28T03:17:06;93650.53;;;1.82;79.64
11053;BME280;55230;42.602;23.470;2023-04-28T03:19:33;93781.16;;;2.77;79.82
11053;BME280;55230;42.602;23.470;2023-04-28T03:22:00;93787.97;;;2.78;79.92
11053;BME280;55230;42.602;23.470;2023-04-28T03:24:28;93717.19;;;2.26;79.10
11053;BME280;55230;42.602;23.470;2023-04-28T03:26:55;93767.88;;;2.70;79.23
11053;BME280;55230;42.602;23.470;2023-04-28T03:29:22;93688.69;;;2.23;78.45
11053;BME280;55230;42.602;23.470;2023-04-28T03:31:50;93788.69;;;2.89;78.82
11053;BME280;55230;42.602;23.470;2023-04-28T03:34:17;93771.41;;;2.50;79.65
11053;BME280;55230;42.602;23.470;2023-04-28T03:36:43;93795.88;;;2.92;78.57
11053;BME280;55230;42.602;23.470;2023-04-28T03:39:10;93792.13;;;2.86;79.29
11053;BME280;55230;42.602;23.470;2023-04-28T03:41:38;93715.22;;;2.37;78.80
11053;BME280;55230;42.602;23.470;2023-04-28T03:44:05;93800.88;;;2.83;78.90
11053;BME280;55230;42.602;23.470;2023-04-28T03:46:32;93691.34;;;2.26;78.33
11053;BME280;55230;42.602;23.470;2023-04-28T03:48:59;93807.91;;;3.14;77.48
11053;BME280;55230;42.602;23.470;2023-04-28T03:51:27;93798.03;;;3.11;76.63
11053;BME280;55230;42.602;23.470;2023-04-28T03:53:54;93807.16;;;3.14;75.46
11053;BME280;55230;42.602;23.470;2023-04-28T03:56:20;93812.34;;;3.31;74.74
11053;BME280;55230;42.602;23.470;2023-04-28T03:58:49;93752.19;;;2.86;74.03
11053;BME280;55230;42.602;23.470;2023-04-28T04:01:15;93785.66;;;3.35;73.30
11053;BME280;55230;42.602;23.470;2023-04-28T04:03:42;93685.00;;;2.65;72.56
11053;BME280;55230;42.602;23.470;2023-04-28T04:06:09;93748.84;;;3.23;71.19
11053;BME280;55230;42.602;23.470;2023-04-28T04:08:36;93822.25;;;3.75;70.69
11053;BME280;55230;42.602;23.470;2023-04-28T04:11:02;93857.88;;;4.36;69.58
11053;BME280;55230;42.602;23.470;2023-04-28T04:13:29;93850.78;;;4.56;67.74
11053;BME280;55230;42.602;23.470;2023-04-28T04:15:58;93613.69;;;3.61;65.33
11053;BME280;55230;42.602;23.470;2023-04-28T04:18:24;93824.94;;;5.56;63.33
11053;BME280;55230;42.602;23.470;2023-04-28T04:20:51;93854.81;;;6.01;60.49
11053;BME280;55230;42.602;23.470;2023-04-28T04:23:20;93852.97;;;6.60;59.43
11053;BME280;55230;42.602;23.470;2023-04-28T04:25:47;93717.84;;;6.06;57.31
11053;BME280;55230;42.602;23.470;2023-04-28T04:28:14;93853.38;;;7.49;52.47
11053;BME280;55230;42.602;23.470;2023-04-28T04:30:41;93773.44;;;6.92;51.72
11053;BME280;55230;42.602;23.470;2023-04-28T04:33:09;93828.72;;;7.22;52.06
11053;BME280;55230;42.602;23.470;2023-04-28T04:35:36;93860.97;;;7.86;51.13
11053;BME280;55230;42.602;23.470;2023-04-28T04:38:03;93888.09;;;7.40;52.09
11053;BME280;55230;42.602;23.470;2023-04-28T04:40:29;93815.88;;;6.39;52.58
11053;BME280;55230;42.602;23.470;2023-04-28T04:42:56;93814.22;;;6.06;54.32
11053;BME280;55230;42.602;23.470;2023-04-28T04:45:23;93775.00;;;5.72;56.22
11053;BME280;55230;42.602;23.470;2023-04-28T04:47:49;93823.03;;;6.26;55.29
11053;BME280;55230;42.602;23.470;2023-04-28T04:50:18;93655.81;;;5.29;54.59
11053;BME280;55230;42.602;23.470;2023-04-28T04:52:44;93839.03;;;6.68;54.02
11053;BME280;55230;42.602;23.470;2023-04-28T04:55:11;93876.53;;;6.68;54.92
11053;BME280;55230;42.602;23.470;2023-04-28T04:57:38;93887.31;;;6.65;55.40
11053;BME280;55230;42.602;23.470;2023-04-28T05:00:05;93878.00;;;6.73;56.61
11053;BME280;55230;42.602;23.470;2023-04-28T05:02:33;93884.16;;;6.50;55.81
11053;BME280;55230;42.602;23.470;2023-04-28T05:04:59;93375.72;;;3.57;56.67
11053;BME280;55230;42.602;23.470;2023-04-28T05:07:28;93956.88;;;7.11;55.55
11053;BME280;55230;42.602;23.470;2023-04-28T05:09:54;93482.09;;;4.66;55.15
11053;BME280;55230;42.602;23.470;2023-04-28T05:12:21;93893.16;;;7.19;54.10
11053;BME280;55230;42.602;23.470;2023-04-28T05:14:48;93859.31;;;6.69;53.83
11053;BME280;55230;42.602;23.470;2023-04-28T05:17:14;93891.16;;;7.03;56.34
11053;BME280;55230;42.602;23.470;2023-04-28T05:19:41;93894.34;;;6.98;56.30
11053;BME280;55230;42.602;23.470;2023-04-28T05:22:09;93896.25;;;6.97;57.17
11053;BME280;55230;42.602;23.470;2023-04-28T05:24:37;93813.56;;;6.21;55.85
11053;BME280;55230;42.602;23.470;2023-04-28T05:27:04;93902.44;;;6.75;55.70
11053;BME280;55230;42.602;23.470;2023-04-28T05:29:31;93850.97;;;6.83;54.09
11053;BME280;55230;42.602;23.470;2023-04-28T05:31:58;93887.75;;;7.38;53.46
11053;BME280;55230;42.602;23.470;2023-04-28T05:34:26;93891.63;;;7.53;52.31
11053;BME280;55230;42.602;23.470;2023-04-28T05:36:52;93522.28;;;5.22;51.02
11053;BME280;55230;42.602;23.470;2023-04-28T05:39:19;93808.34;;;7.41;51.26
11053;BME280;55230;42.602;23.470;2023-04-28T05:41:47;93766.84;;;7.13;49.30
11053;BME280;55230;42.602;23.470;2023-04-28T05:44:14;93887.13;;;7.98;49.59
11053;BME280;55230;42.602;23.470;2023-04-28T05:46:41;93726.44;;;6.88;49.82
11053;BME280;55230;42.602;23.470;2023-04-28T05:49:08;93839.97;;;7.33;47.99
11053;BME280;55230;42.602;23.470;2023-04-28T05:51:35;93709.06;;;6.60;49.38
11053;BME280;55230;42.602;23.470;2023-04-28T05:54:02;93849.88;;;7.52;50.33
11053;BME280;55230;42.602;23.470;2023-04-28T05:56:29;93896.88;;;7.76;51.33
11053;BME280;55230;42.602;23.470;2023-04-28T05:58:57;93769.38;;;7.36;51.15
11053;BME280;55230;42.602;23.470;2023-04-28T06:01:26;93911.13;;;8.38;50.44
11053;BME280;55230;42.602;23.470;2023-04-28T06:03:53;93842.97;;;7.19;50.91
11053;BME280;55230;42.602;23.470;2023-04-28T06:06:22;93906.19;;;8.04;51.09
11053;BME280;55230;42.602;23.470;2023-04-28T06:08:49;93907.28;;;8.06;49.82
11053;BME280;55230;42.602;23.470;2023-04-28T06:11:15;93928.22;;;7.63;50.19
11053;BME280;55230;42.602;23.470;2023-04-28T06:13:46;93635.13;;;6.11;50.43
11053;BME280;55230;42.602;23.470;2023-04-28T06:16:14;93920.38;;;7.88;51.49
11053;BME280;55230;42.602;23.470;2023-04-28T06:18:41;93908.19;;;8.00;50.12
11053;BME280;55230;42.602;23.470;2023-04-28T06:21:08;93820.78;;;7.35;49.33
11053;BME280;55230;42.602;23.470;2023-04-28T06:23:35;93866.72;;;7.37;51.92
11053;BME280;55230;42.602;23.470;2023-04-28T06:26:03;93877.63;;;7.62;50.77
11053;BME280;55230;42.602;23.470;2023-04-28T06:28:29;93910.78;;;7.87;50.04
11053;BME280;55230;42.602;23.470;2023-04-28T06:30:56;93863.84;;;7.28;50.53
11053;BME280;55230;42.602;23.470;2023-04-28T06:33:25;93897.13;;;8.14;51.63
11053;BME280;55230;42.602;23.470;2023-04-28T06:35:52;93918.03;;;8.39;49.57
11053;BME280;55230;42.602;23.470;2023-04-28T06:38:19;93399.94;;;5.29;48.24
11053;BME280;55230;42.602;23.470;2023-04-28T06:40:46;93846.16;;;8.27;47.83
11053;BME280;55230;42.602;23.470;2023-04-28T06:43:12;93906.72;;;9.17;49.48
11053;BME280;55230;42.602;23.470;2023-04-28T06:45:39;93844.41;;;9.06;45.54
11053;BME280;55230;42.602;23.470;2023-04-28T06:48:06;93517.03;;;6.57;45.61
11053;BME280;55230;42.602;23.470;2023-04-28T06:50:35;93926.44;;;8.98;47.36
11053;BME280;55230;42.602;23.470;2023-04-28T06:53:02;93824.22;;;8.44;45.99
11053;BME280;55230;42.602;23.470;2023-04-28T06:55:29;93846.72;;;8.50;45.74
11053;BME280;55230;42.602;23.470;2023-04-28T06:57:56;93823.84;;;7.97;46.03
11053;BME280;55230;42.602;23.470;2023-04-28T07:00:23;93639.78;;;7.39;46.43
11053;BME280;55230;42.602;23.470;2023-04-28T07:02:49;93894.22;;;8.82;46.42
11053;BME280;55230;42.602;23.470;2023-04-28T07:05:16;93900.78;;;8.81;46.78
11053;BME280;55230;42.602;23.470;2023-04-28T07:07:44;93907.09;;;9.03;46.21
11053;BME280;55230;42.602;23.470;2023-04-28T07:10:11;93835.28;;;8.46;48.00
11053;BME280;55230;42.602;23.470;2023-04-28T07:12:39;93898.41;;;8.99;45.87
11053;BME280;55230;42.602;23.470;2023-04-28T07:15:07;93923.09;;;8.94;46.48
11053;BME280;55230;42.602;23.470;2023-04-28T07:17:34;93862.56;;;9.02;45.73
11053;BME280;55230;42.602;23.470;2023-04-28T07:20:00;93841.84;;;8.74;43.91
11053;BME280;55230;42.602;23.470;2023-04-28T07:22:28;93904.59;;;9.37;43.95
11053;BME280;55230;42.602;23.470;2023-04-28T07:24:57;93914.13;;;9.92;44.86
11053;BME280;55230;42.602;23.470;2023-04-28T07:27:23;93785.22;;;9.18;44.93
11053;BME280;55230;42.602;23.470;2023-04-28T07:29:50;93857.00;;;9.84;43.12
11053;BME280;55230;42.602;23.470;2023-04-28T07:32:17;93850.03;;;9.62;45.85
11053;BME280;55230;42.602;23.470;2023-04-28T07:34:44;93897.00;;;9.73;46.71
11053;BME280;55230;42.602;23.470;2023-04-28T07:37:10;93883.06;;;9.37;44.19
11053;BME280;55230;42.602;23.470;2023-04-28T07:39:37;93902.03;;;9.46;45.43
11053;BME280;55230;42.602;23.470;2023-04-28T07:42:07;93906.78;;;9.80;44.63
11053;BME280;55230;42.602;23.470;2023-04-28T07:44:34;93909.59;;;10.26;44.85
11053;BME280;55230;42.602;23.470;2023-04-28T07:47:01;93904.31;;;9.60;45.16
11053;BME280;55230;42.602;23.470;2023-04-28T07:49:28;93781.09;;;8.89;46.09
11053;BME280;55230;42.602;23.470;2023-04-28T07:51:55;93905.03;;;9.48;44.42
11053;BME280;55230;42.602;23.470;2023-04-28T07:54:22;93850.09;;;9.08;44.37
11053;BME280;55230;42.602;23.470;2023-04-28T07:56:49;93848.38;;;9.14;44.64
11053;BME280;55230;42.602;23.470;2023-04-28T07:59:17;93915.47;;;9.33;44.82
11053;BME280;55230;42.602;23.470;2023-04-28T08:01:44;93850.03;;;8.83;44.89
11053;BME280;55230;42.602;23.470;2023-04-28T08:04:11;93868.38;;;9.13;45.30
11053;BME280;55230;42.602;23.470;2023-04-28T08:06:38;93905.16;;;9.45;45.28
11053;BME280;55230;42.602;23.470;2023-04-28T08:09:05;93899.00;;;9.44;45.51
11053;BME280;55230;42.602;23.470;2023-04-28T08:11:32;93677.25;;;8.00;45.19
11053;BME280;55230;42.602;23.470;2023-04-28T08:13:59;93716.72;;;8.32;44.31
11053;BME280;55230;42.602;23.470;2023-04-28T08:16:29;93869.94;;;9.39;43.84
11053;BME280;55230;42.602;23.470;2023-04-28T08:18:56;93893.09;;;9.74;42.07
11053;BME280;55230;42.602;23.470;2023-04-28T08:21:23;93902.25;;;9.89;42.51
11053;BME280;55230;42.602;23.470;2023-04-28T08:23:51;93758.84;;;9.26;42.48
11053;BME280;55230;42.602;23.470;2023-04-28T08:26:17;93777.34;;;9.49;41.23
11053;BME280;55230;42.602;23.470;2023-04-28T08:28:44;93813.38;;;9.77;42.44
11053;BME280;55230;42.602;23.470;2023-04-28T08:31:11;93750.13;;;8.84;42.34
11053;BME280;55230;42.602;23.470;2023-04-28T08:33:39;93831.66;;;10.07;43.63
11053;BME280;55230;42.602;23.470;2023-04-28T08:36:09;93867.50;;;10.41;42.13
11053;BME280;55230;42.602;23.470;2023-04-28T08:38:39;93882.31;;;10.59;42.46
11053;BME280;55230;42.602;23.470;2023-04-28T08:41:06;93815.59;;;10.72;45.11
11053;BME280;55230;42.602;23.470;2023-04-28T08:43:34;93896.25;;;11.65;40.23
11053;BME280;55230;42.602;23.470;2023-04-28T08:46:05;93870.44;;;11.42;40.99
11053;BME280;55230;42.602;23.470;2023-04-28T08:48:38;93889.47;;;11.39;42.01
11053;BME280;55230;42.602;23.470;2023-04-28T08:51:06;93879.38;;;10.87;43.01
11053;BME280;55230;42.602;23.470;2023-04-28T08:53:36;93693.28;;;9.79;43.91
11053;BME280;55230;42.602;23.470;2023-04-28T08:56:05;93865.09;;;10.78;42.26
11053;BME280;55230;42.602;23.470;2023-04-28T08:58:34;93882.03;;;10.78;42.73
11053;BME280;55230;42.602;23.470;2023-04-28T09:01:02;93609.91;;;9.20;41.63
11053;BME280;55230;42.602;23.470;2023-04-28T09:03:29;93853.34;;;11.15;42.61
11053;BME280;55230;42.602;23.470;2023-04-28T09:05:57;93855.56;;;11.38;41.17
11053;BME280;55230;42.602;23.470;2023-04-28T09:08:25;93867.50;;;11.80;43.93
11053;BME280;55230;42.602;23.470;2023-04-28T09:11:06;93872.59;;;11.78;40.94
11053;BME280;55230;42.602;23.470;2023-04-28T09:13:33;93866.81;;;11.36;40.92
11053;BME280;55230;42.602;23.470;2023-04-28T09:16:01;93846.06;;;11.03;41.91
11053;BME280;55230;42.602;23.470;2023-04-28T09:18:28;93815.91;;;11.26;41.80
11053;BME280;55230;42.602;23.470;2023-04-28T09:21:07;93869.09;;;12.08;40.45
11053;BME280;55230;42.602;23.470;2023-04-28T09:23:45;93863.25;;;11.70;41.13
11053;BME280;55230;42.602;23.470;2023-04-28T09:26:13;93668.78;;;10.20;38.90
11053;BME280;55230;42.602;23.470;2023-04-28T09:28:39;93842.34;;;12.10;40.26
11053;BME280;55230;42.602;23.470;2023-04-28T09:31:21;93845.56;;;12.36;38.46
11053;BME280;55230;42.602;23.470;2023-04-28T09:33:55;93843.16;;;12.20;38.78
11053;BME280;55230;42.602;23.470;2023-04-28T09:36:26;93888.38;;;12.28;38.50
11053;BME280;55230;42.602;23.470;2023-04-28T09:38:56;93791.25;;;11.85;39.13
11053;BME280;55230;42.602;23.470;2023-04-28T09:41:34;93833.50;;;12.10;38.95
11053;BME280;55230;42.602;23.470;2023-04-28T09:44:09;93361.19;;;8.90;38.15
11053;BME280;55230;42.602;23.470;2023-04-28T09:46:36;93804.84;;;12.30;38.83
11053;BME280;55230;42.602;23.470;2023-04-28T09:49:02;93744.13;;;12.49;40.17
11053;BME280;55230;42.602;23.470;2023-04-28T09:51:30;93824.34;;;12.25;36.95
11053;BME280;55230;42.602;23.470;2023-04-28T09:53:59;93820.13;;;12.15;40.79
11053;BME280;55230;42.602;23.470;2023-04-28T09:56:27;93814.47;;;13.04;37.61
11053;BME280;55230;42.602;23.470;2023-04-28T09:58:56;93291.88;;;9.25;38.00
11053;BME280;55230;42.602;23.470;2023-04-28T10:01:23;93719.44;;;11.57;39.73
11053;BME280;55230;42.602;23.470;2023-04-28T10:03:51;93808.34;;;11.82;37.80
11053;BME280;55230;42.602;23.470;2023-04-28T10:06:19;93828.16;;;11.79;39.35
11053;BME280;55230;42.602;23.470;2023-04-28T10:08:47;93789.66;;;11.57;39.29
11053;BME280;55230;42.602;23.470;2023-04-28T10:11:16;93804.22;;;12.08;39.75
11053;BME280;55230;42.602;23.470;2023-04-28T10:13:43;93713.69;;;11.46;38.63
11053;BME280;55230;42.602;23.470;2023-04-28T10:16:10;93793.56;;;12.41;38.53
11053;BME280;55230;42.602;23.470;2023-04-28T10:18:39;93797.56;;;11.91;38.44
11053;BME280;55230;42.602;23.470;2023-04-28T10:21:06;93787.25;;;12.08;38.50
11053;BME280;55230;42.602;23.470;2023-04-28T10:23:46;93773.59;;;12.20;38.76
11053;BME280;55230;42.602;23.470;2023-04-28T10:26:22;93796.59;;;12.25;36.81
11053;BME280;55230;42.602;23.470;2023-04-28T10:28:52;93669.97;;;11.87;39.08
11053;BME280;55230;42.602;23.470;2023-04-28T10:31:20;93790.91;;;13.37;37.22
11053;BME280;55230;42.602;23.470;2023-04-28T10:33:47;93786.28;;;13.01;36.14
11053;BME280;55230;42.602;23.470;2023-04-28T10:36:48;93790.25;;;12.10;37.97
11053;BME280;55230;42.602;23.470;2023-04-28T10:39:17;93797.78;;;12.24;36.16
11053;BME280;55230;42.602;23.470;2023-04-28T10:41:46;93782.56;;;12.80;36.84
11053;BME280;55230;42.602;23.470;2023-04-28T10:44:41;93781.19;;;13.12;36.33
11053;BME280;55230;42.602;23.470;2023-04-28T10:47:08;93777.81;;;13.35;35.32
11053;BME280;55230;42.602;23.470;2023-04-28T10:50:08;93766.56;;;13.28;37.88
11053;BME280;55230;42.602;23.470;2023-04-28T10:52:48;93655.31;;;12.57;35.08
11053;BME280;55230;42.602;23.470;2023-04-28T10:55:32;93763.81;;;13.37;34.19
11053;BME280;55230;42.602;23.470;2023-04-28T10:58:32;93772.03;;;13.10;32.45
11053;BME280;55230;42.602;23.470;2023-04-28T11:01:23;93762.84;;;12.98;32.16
11053;BME280;55230;42.602;23.470;2023-04-28T11:03:51;93784.44;;;13.34;37.60
11053;BME280;55230;42.602;23.470;2023-04-28T11:06:25;93537.56;;;11.60;34.18
11053;BME280;55230;42.602;23.470;2023-04-28T11:08:53;93751.31;;;12.89;32.68
11053;BME280;55230;42.602;23.470;2023-04-28T11:11:24;93756.09;;;12.94;32.63
11053;BME280;55230;42.602;23.470;2023-04-28T11:13:53;93753.41;;;13.03;33.17
11053;BME280;55230;42.602;23.470;2023-04-28T11:16:22;93663.03;;;12.40;33.40
11053;BME280;55230;42.602;23.470;2023-04-28T11:18:55;93753.38;;;13.44;33.10
11053;BME280;55230;42.602;23.470;2023-04-28T11:21:24;93706.94;;;13.37;31.84
11053;BME280;55230;42.602;23.470;2023-04-28T11:23:53;93741.94;;;13.49;31.91
11053;BME280;55230;42.602;23.470;2023-04-28T11:26:20;93480.13;;;11.50;31.72
11053;BME280;55230;42.602;23.470;2023-04-28T11:28:53;93747.91;;;13.30;31.58
11053;BME280;55230;42.602;23.470;2023-04-28T11:31:21;93606.19;;;12.49;32.11
11053;BME280;55230;42.602;23.470;2023-04-28T11:33:52;93743.63;;;13.38;33.62
11053;BME280;55230;42.602;23.470;2023-04-28T11:36:24;93626.06;;;12.88;33.34
11053;BME280;55230;42.602;23.470;2023-04-28T11:38:52;93691.66;;;13.25;32.48
11053;BME280;55230;42.602;23.470;2023-04-28T11:41:19;93526.41;;;12.03;33.56
11053;BME280;55230;42.602;23.470;2023-04-28T11:43:46;93725.63;;;13.26;32.02
11053;BME280;55230;42.602;23.470;2023-04-28T11:46:18;93703.84;;;13.20;34.76
11053;BME280;55230;42.602;23.470;2023-04-28T11:48:46;93753.19;;;13.57;32.06
11053;BME280;55230;42.602;23.470;2023-04-28T11:51:33;93698.38;;;13.62;31.78
11053;BME280;55230;42.602;23.470;2023-04-28T11:54:00;93715.88;;;13.52;33.32
11053;BME280;55230;42.602;23.470;2023-04-28T11:56:28;93662.03;;;13.45;32.12
11053;BME280;55230;42.602;23.470;2023-04-28T11:59:05;93712.50;;;13.89;30.67
11053;BME280;55230;42.602;23.470;2023-04-28T12:01:42;93502.09;;;12.03;31.06
11053;BME280;55230;42.602;23.470;2023-04-28T12:04:09;93709.78;;;13.66;32.01
11053;BME280;55230;42.602;23.470;2023-04-28T12:06:37;93607.31;;;12.75;31.63
11053;BME280;55230;42.602;23.470;2023-04-28T12:09:14;93693.41;;;13.37;31.32
11053;BME280;55230;42.602;23.470;2023-04-28T12:11:51;93695.94;;;13.64;32.39
11053;BME280;55230;42.602;23.470;2023-04-28T12:14:19;93168.50;;;10.17;31.30
11053;BME280;55230;42.602;23.470;2023-04-28T12:16:47;93516.56;;;12.65;30.75
11053;BME280;55230;42.602;23.470;2023-04-28T12:19:15;93357.28;;;11.88;30.58
11053;BME280;55230;42.602;23.470;2023-04-28T12:21:57;93604.28;;;13.62;31.72
11053;BME280;55230;42.602;23.470;2023-04-28T12:24:24;93640.72;;;13.85;30.09
11053;BME280;55230;42.602;23.470;2023-04-28T12:26:51;93674.66;;;13.95;30.23
11053;BME280;55230;42.602;23.470;2023-04-28T12:29:34;93638.47;;;13.98;32.46
11053;BME280;55230;42.602;23.470;2023-04-28T12:32:03;93486.72;;;12.84;29.47
11053;BME280;55230;42.602;23.470;2023-04-28T12:34:30;93643.53;;;14.05;29.16
11053;BME280;55230;42.602;23.470;2023-04-28T12:36:58;93661.59;;;14.46;30.86
11053;BME280;55230;42.602;23.470;2023-04-28T12:39:24;93655.41;;;14.31;31.01
11053;BME280;55230;42.602;23.470;2023-04-28T12:41:51;93578.28;;;13.94;30.59
11053;BME280;55230;42.602;23.470;2023-04-28T12:44:19;93651.25;;;14.21;31.26
11053;BME280;55230;42.602;23.470;2023-04-28T12:46:46;93670.75;;;14.49;30.31
11053;BME280;55230;42.602;23.470;2023-04-28T12:49:15;93508.16;;;13.72;31.92
11053;BME280;55230;42.602;23.470;2023-04-28T12:51:41;93652.41;;;14.29;32.02
11053;BME280;55230;42.602;23.470;2023-04-28T12:54:08;93532.59;;;13.49;31.95
11053;BME280;55230;42.602;23.470;2023-04-28T12:56:35;93610.16;;;13.61;32.19
11053;BME280;55230;42.602;23.470;2023-04-28T12:59:02;93642.91;;;14.10;31.92
11053;BME280;55230;42.602;23.470;2023-04-28T13:01:29;93643.81;;;14.45;30.96
11053;BME280;55230;42.602;23.470;2023-04-28T13:03:55;93639.94;;;14.23;31.41